Time;durP1;ratioP1;P1;durP2;ratioP2;P2;SDS_P1;SDS_P2;PMS_P1;PMS_P2;Temp;Humidity;BMP_temperature;BMP_pressure;BME280_temperature;BME280_humidity;BME280_pressure;Samples;Min_cycle;Max_cycle;Signal;HPM_P1;HPM_P2
2022/02/26 00:01:29;;;;;;;;;;;;;;;2.02;73.17;99089.63;5113256;27;19972;-79
2022/02/26 00:03:57;;;;;;;;;;;;;;;1.94;73.33;99094.50;5119820;27;20333;-80
2022/02/26 00:06:25;;;;;;;;;;;;;;;1.94;73.09;99095.31;5118690;27;19973;-79
2022/02/26 00:08:55;;;;;;;;;;;;;;;2.15;72.73;99098.53;5127941;27;19923;-80
2022/02/26 00:11:25;;;;;;;;;;;;;;;2.25;72.19;99109.53;5121043;27;19966;-80
2022/02/26 00:13:56;;;;;;;;;;;;;;;1.94;73.07;99107.88;5117220;27;19924;-78
2022/02/26 00:16:24;;;;;;;;;;;;;;;1.90;73.36;99109.38;5107425;27;20335;-80
2022/02/26 00:18:52;;;;;;;;;;;;;;;1.93;73.03;99111.63;5095910;27;19931;-81
2022/02/26 00:21:20;;;;;;;;;;;;;;;2.03;72.64;99106.53;5129330;27;19969;-82
2022/02/26 00:23:48;;;;;;;;;;;;;;;2.14;72.54;99104.97;5124995;27;20443;-80
2022/02/26 00:26:20;;;;;;;;;;;;;;;2.24;71.90;99105.22;5127189;27;20343;-79
2022/02/26 00:28:48;;;;;;;;;;;;;;;2.23;71.55;99104.38;5124160;27;19931;-78
2022/02/26 00:31:16;;;;;;;;;;;;;;;2.09;72.35;99103.75;5118610;27;19924;-80
2022/02/26 00:33:45;;;;;;;;;;;;;;;1.99;72.51;99110.72;5127114;27;19928;-79
2022/02/26 00:36:13;;;;;;;;;;;;;;;1.87;73.00;99116.03;5124301;27;20591;-78
2022/02/26 00:38:41;;;;;;;;;;;;;;;1.91;73.00;99113.69;5121660;27;19924;-80
2022/02/26 00:41:09;;;;;;;;;;;;;;;1.79;73.40;99111.78;5124741;27;20373;-79
2022/02/26 00:43:38;;;;;;;;;;;;;;;1.78;73.53;99118.19;5109195;27;19924;-82
2022/02/26 00:46:07;;;;;;;;;;;;;;;1.79;73.29;99121.69;5124567;27;20388;-79
2022/02/26 00:51:32;;;;;;;;;;;;;;;1.72;73.45;99134.34;5059753;28;19928;-79
2022/02/26 00:54:02;;;;;;;;;;;;;;;1.69;73.75;99132.09;5097917;27;19955;-78
2022/02/26 00:56:34;;;;;;;;;;;;;;;1.76;73.32;99143.56;5120834;27;19976;-80
2022/02/26 00:59:03;;;;;;;;;;;;;;;1.73;73.00;99138.66;5098519;27;19972;-82
2022/02/26 01:01:31;;;;;;;;;;;;;;;1.64;73.60;99145.34;5121600;27;19932;-79
2022/02/26 01:03:59;;;;;;;;;;;;;;;1.76;72.80;99144.38;5105434;27;19947;-79
2022/02/26 01:06:27;;;;;;;;;;;;;;;1.56;73.53;99155.31;5102915;27;20542;-80
2022/02/26 01:08:55;;;;;;;;;;;;;;;2.07;71.58;99139.88;5114323;27;19931;-78
2022/02/26 01:11:23;;;;;;;;;;;;;;;1.62;72.83;99142.88;5102887;28;19923;-79
2022/02/26 01:13:50;;;;;;;;;;;;;;;1.48;73.45;99147.56;5102229;28;19932;-80
2022/02/26 01:16:20;;;;;;;;;;;;;;;1.55;73.48;99148.31;5108492;28;20336;-79
2022/02/26 01:18:48;;;;;;;;;;;;;;;1.48;73.36;99152.91;5104295;27;19932;-80
2022/02/26 01:21:16;;;;;;;;;;;;;;;1.45;73.56;99149.88;5104715;27;19959;-80
2022/02/26 01:23:44;;;;;;;;;;;;;;;1.47;73.24;99153.16;5109973;27;19959;-80
2022/02/26 01:26:13;;;;;;;;;;;;;;;1.43;73.71;99150.09;5106502;27;20459;-78
2022/02/26 01:28:40;;;;;;;;;;;;;;;1.41;73.94;99146.81;5103339;27;19977;-81
2022/02/26 01:31:08;;;;;;;;;;;;;;;1.38;73.82;99157.97;5103870;27;19924;-76
2022/02/26 01:33:38;;;;;;;;;;;;;;;1.41;73.80;99157.53;5109502;27;19932;-80
2022/02/26 01:36:06;;;;;;;;;;;;;;;1.32;73.82;99158.84;5082124;28;19923;-80
2022/02/26 01:38:34;;;;;;;;;;;;;;;1.32;73.93;99156.16;5108219;27;19931;-81
2022/02/26 01:41:02;;;;;;;;;;;;;;;1.36;73.88;99165.41;5115959;27;19931;-81
2022/02/26 01:43:33;;;;;;;;;;;;;;;1.47;73.56;99167.34;5103920;27;19924;-78
2022/02/26 01:46:07;;;;;;;;;;;;;;;1.43;73.74;99163.47;5095259;28;20331;-78
2022/02/26 01:48:36;;;;;;;;;;;;;;;1.44;73.54;99162.47;5102783;27;19931;-80
2022/02/26 01:51:13;;;;;;;;;;;;;;;1.41;73.85;99162.88;5093075;28;20362;-77
2022/02/26 01:53:41;;;;;;;;;;;;;;;1.37;73.77;99163.53;5104981;27;19923;-81
2022/02/26 01:56:09;;;;;;;;;;;;;;;1.52;73.36;99164.81;5109541;27;20401;-80
2022/02/26 01:58:38;;;;;;;;;;;;;;;1.54;73.49;99165.41;5102366;27;19931;-80
2022/02/26 02:01:07;;;;;;;;;;;;;;;1.44;73.73;99167.81;5104546;27;19968;-80
2022/02/26 02:03:36;;;;;;;;;;;;;;;1.45;73.88;99172.13;5109950;27;19924;-85
2022/02/26 02:06:07;;;;;;;;;;;;;;;1.52;73.68;99175.53;5088535;27;19932;-84
2022/02/26 02:08:37;;;;;;;;;;;;;;;1.49;73.88;99170.66;5102875;27;20007;-79
2022/02/26 02:11:08;;;;;;;;;;;;;;;1.57;73.86;99173.03;5108151;27;19944;-79
2022/02/26 02:13:36;;;;;;;;;;;;;;;1.55;73.56;99175.13;5119960;27;19924;-79
2022/02/26 02:16:06;;;;;;;;;;;;;;;1.42;74.34;99177.91;5109006;27;20681;-81
2022/02/26 02:18:34;;;;;;;;;;;;;;;1.64;73.98;99189.00;5121410;27;20020;-79
2022/02/26 02:21:01;;;;;;;;;;;;;;;1.81;73.71;99178.53;5125148;27;19930;-82
2022/02/26 02:23:33;;;;;;;;;;;;;;;1.75;73.52;99182.09;5126635;27;19932;-78
2022/02/26 02:26:02;;;;;;;;;;;;;;;1.62;73.59;99174.22;5119063;27;19931;-79
2022/02/26 02:28:33;;;;;;;;;;;;;;;1.62;73.89;99184.94;5118865;27;19924;-80
2022/02/26 02:31:00;;;;;;;;;;;;;;;1.64;74.13;99180.97;5128728;27;19932;-80
2022/02/26 02:33:28;;;;;;;;;;;;;;;1.79;73.63;99186.78;5126383;27;19988;-83
2022/02/26 02:35:56;;;;;;;;;;;;;;;1.78;73.62;99181.66;5122356;27;20002;-80
2022/02/26 02:38:25;;;;;;;;;;;;;;;1.70;73.78;99181.94;5125536;27;19924;-81
2022/02/26 02:40:54;;;;;;;;;;;;;;;1.80;73.61;99183.06;5128619;27;21137;-79
2022/02/26 02:43:23;;;;;;;;;;;;;;;1.70;74.01;99187.31;5121902;27;20399;-83
2022/02/26 02:45:51;;;;;;;;;;;;;;;1.76;74.28;99189.13;5128445;27;19931;-83
2022/02/26 02:48:21;;;;;;;;;;;;;;;1.64;74.27;99188.19;5123928;27;19924;-79
2022/02/26 02:50:49;;;;;;;;;;;;;;;1.62;74.44;99192.97;5125137;27;20146;-78
2022/02/26 02:53:18;;;;;;;;;;;;;;;1.63;74.30;99194.59;5120060;27;19976;-79
2022/02/26 02:55:47;;;;;;;;;;;;;;;1.62;74.43;99195.66;5122411;27;19928;-78
2022/02/26 02:58:16;;;;;;;;;;;;;;;1.56;74.50;99192.00;5131786;27;19937;-80
2022/02/26 03:00:44;;;;;;;;;;;;;;;1.48;74.68;99195.75;5127108;27;19931;-81
2022/02/26 03:03:38;;;;;;;;;;;;;;;1.46;74.97;99191.69;5118847;27;19927;-77
2022/02/26 03:06:09;;;;;;;;;;;;;;;1.42;74.79;99195.84;5129144;27;19959;-83
2022/02/26 03:08:37;;;;;;;;;;;;;;;1.48;74.52;99195.75;5107591;27;19932;-79
2022/02/26 03:11:08;;;;;;;;;;;;;;;1.47;74.38;99199.50;5123992;27;19923;-77
2022/02/26 03:13:41;;;;;;;;;;;;;;;1.53;74.54;99208.50;5122629;27;19924;-80
2022/02/26 03:16:11;;;;;;;;;;;;;;;1.55;74.49;99206.44;5121080;27;19928;-78
2022/02/26 03:18:42;;;;;;;;;;;;;;;1.64;73.74;99213.13;5119074;27;19938;-81
2022/02/26 03:21:10;;;;;;;;;;;;;;;1.49;74.12;99218.00;5123157;27;20022;-83
2022/02/26 03:23:38;;;;;;;;;;;;;;;1.33;74.54;99219.38;5119517;27;19963;-78
2022/02/26 03:26:09;;;;;;;;;;;;;;;1.35;74.50;99221.88;5124138;27;19923;-81
2022/02/26 03:28:38;;;;;;;;;;;;;;;1.31;74.72;99221.47;5126211;27;19936;-80
2022/02/26 03:31:06;;;;;;;;;;;;;;;1.31;74.60;99222.28;5120647;27;19935;-80
2022/02/26 03:33:34;;;;;;;;;;;;;;;1.24;75.02;99220.72;5120396;27;20512;-81
2022/02/26 03:36:02;;;;;;;;;;;;;;;1.57;73.90;99231.94;5123263;27;20405;-78
2022/02/26 03:38:32;;;;;;;;;;;;;;;1.42;73.88;99223.44;5119311;27;19923;-81
2022/02/26 03:41:00;;;;;;;;;;;;;;;1.38;73.86;99227.56;5128357;27;19984;-82
2022/02/26 03:43:28;;;;;;;;;;;;;;;1.38;73.85;99221.41;5114466;27;20008;-83
2022/02/26 03:45:57;;;;;;;;;;;;;;;1.36;73.93;99232.34;5119859;27;19924;-81
2022/02/26 03:48:25;;;;;;;;;;;;;;;1.34;73.84;99228.25;5113376;27;20051;-80
2022/02/26 03:50:54;;;;;;;;;;;;;;;1.24;74.00;99231.44;5121100;27;19923;-80
2022/02/26 03:53:21;;;;;;;;;;;;;;;1.29;73.90;99234.28;5120615;27;19931;-82
2022/02/26 03:55:51;;;;;;;;;;;;;;;1.34;73.88;99237.09;5122085;27;19990;-80
2022/02/26 03:58:43;;;;;;;;;;;;;;;1.26;74.02;99234.69;5119765;27;21840;-80
2022/02/26 04:01:13;;;;;;;;;;;;;;;1.46;73.58;99240.69;5117592;27;19930;-78
2022/02/26 04:03:43;;;;;;;;;;;;;;;1.39;73.32;99239.94;5103820;27;19924;-82
2022/02/26 04:06:11;;;;;;;;;;;;;;;1.24;73.56;99237.59;5118585;27;20373;-80
2022/02/26 04:08:39;;;;;;;;;;;;;;;1.15;73.80;99249.59;5123249;27;19970;-81
2022/02/26 04:11:07;;;;;;;;;;;;;;;1.11;74.31;99252.94;5118220;28;19923;-79
2022/02/26 04:13:36;;;;;;;;;;;;;;;1.11;74.24;99255.59;5119327;27;20373;-78
2022/02/26 04:16:07;;;;;;;;;;;;;;;1.12;74.00;99267.94;5120653;28;19973;-82
2022/02/26 04:18:37;;;;;;;;;;;;;;;1.11;74.02;99268.97;5111379;28;20304;-79
2022/02/26 04:21:09;;;;;;;;;;;;;;;1.14;73.78;99265.88;5112553;28;20281;-78
2022/02/26 04:23:37;;;;;;;;;;;;;;;1.03;74.08;99278.94;5119109;27;19931;-79
2022/02/26 04:26:07;;;;;;;;;;;;;;;1.35;73.47;99278.91;5121889;28;20014;-83
2022/02/26 04:28:36;;;;;;;;;;;;;;;1.16;73.42;99287.88;5118646;28;19923;-80
2022/02/26 04:31:07;;;;;;;;;;;;;;;1.39;73.02;99277.44;5112947;28;19923;-80
2022/02/26 04:33:35;;;;;;;;;;;;;;;1.62;71.54;99286.72;5116689;27;19932;-79
2022/02/26 04:36:07;;;;;;;;;;;;;;;1.33;72.43;99289.00;5126161;27;19928;-80
2022/02/26 04:38:35;;;;;;;;;;;;;;;1.15;73.29;99303.13;5124344;27;20409;-80
2022/02/26 04:41:28;;;;;;;;;;;;;;;1.17;73.27;99308.25;5118149;28;20415;-84
2022/02/26 04:43:57;;;;;;;;;;;;;;;1.21;73.37;99306.81;5120020;28;20573;-83
2022/02/26 04:46:27;;;;;;;;;;;;;;;1.09;73.83;99309.34;5122203;27;19927;-79
2022/02/26 04:48:56;;;;;;;;;;;;;;;1.04;73.65;99312.69;5128176;28;19924;-80
2022/02/26 04:51:25;;;;;;;;;;;;;;;1.05;73.79;99319.66;5125432;28;19930;-82
2022/02/26 04:54:02;;;;;;;;;;;;;;;1.12;73.55;99319.66;5129774;27;19923;-81
2022/02/26 04:56:31;;;;;;;;;;;;;;;1.10;73.70;99318.19;5126994;27;20559;-81
2022/02/26 04:58:58;;;;;;;;;;;;;;;0.98;73.69;99334.94;5134708;27;19924;-83
2022/02/26 05:01:35;;;;;;;;;;;;;;;1.09;73.67;99335.31;5129162;27;19924;-81
2022/02/26 05:04:10;;;;;;;;;;;;;;;1.30;73.32;99340.31;5129638;27;19924;-80
2022/02/26 05:06:41;;;;;;;;;;;;;;;1.33;73.00;99339.88;5114301;27;19952;-83
2022/02/26 05:09:23;;;;;;;;;;;;;;;1.82;71.43;99343.63;5131980;27;20018;-81
2022/02/26 05:11:51;;;;;;;;;;;;;;;1.65;71.72;99339.84;5116662;27;19924;-83
2022/02/26 05:14:22;;;;;;;;;;;;;;;1.88;70.63;99341.94;5107355;28;20411;-80
2022/02/26 05:16:53;;;;;;;;;;;;;;;1.54;71.30;99344.88;5087057;28;19939;-84
2022/02/26 05:19:21;;;;;;;;;;;;;;;1.54;71.75;99354.75;5109884;27;20373;-82
2022/02/26 05:21:50;;;;;;;;;;;;;;;1.28;72.44;99364.63;5109221;27;20598;-80
2022/02/26 05:24:18;;;;;;;;;;;;;;;1.58;71.20;99362.16;5085479;28;19965;-80
2022/02/26 05:26:46;;;;;;;;;;;;;;;1.68;71.27;99369.72;5085710;28;20388;-81
2022/02/26 05:29:17;;;;;;;;;;;;;;;1.51;71.64;99371.28;5109095;27;20437;-79
2022/02/26 05:31:45;;;;;;;;;;;;;;;1.51;71.73;99371.28;5106927;27;19963;-79
2022/02/26 05:34:17;;;;;;;;;;;;;;;1.33;72.08;99372.00;5108522;28;19955;-79
2022/02/26 05:36:44;;;;;;;;;;;;;;;1.21;72.37;99376.41;5086623;28;20330;-80
2022/02/26 05:39:14;;;;;;;;;;;;;;;1.42;71.89;99386.78;5102599;27;19932;-83
2022/02/26 05:41:44;;;;;;;;;;;;;;;1.59;71.48;99395.13;5099994;28;19924;-82
2022/02/26 05:44:12;;;;;;;;;;;;;;;1.70;71.07;99396.28;5104708;27;20438;-83
2022/02/26 05:46:40;;;;;;;;;;;;;;;2.06;69.51;99400.94;5100953;27;19955;-80
2022/02/26 05:49:08;;;;;;;;;;;;;;;2.15;68.74;99407.69;5101966;28;19924;-79
2022/02/26 05:51:36;;;;;;;;;;;;;;;2.24;68.09;99413.59;5103776;27;19924;-83
2022/02/26 05:54:04;;;;;;;;;;;;;;;2.42;67.31;99418.16;5099757;28;19950;-79
2022/02/26 05:56:33;;;;;;;;;;;;;;;2.27;68.00;99429.22;5067721;28;19976;-81
2022/02/26 05:59:01;;;;;;;;;;;;;;;2.20;68.57;99429.28;5094495;28;20297;-81
2022/02/26 06:01:28;;;;;;;;;;;;;;;2.43;67.60;99434.03;5099620;28;19935;-81
2022/02/26 06:03:57;;;;;;;;;;;;;;;1.95;69.38;99440.00;5094120;27;20003;-83
2022/02/26 06:06:25;;;;;;;;;;;;;;;1.88;70.37;99447.28;5097071;28;20439;-84
2022/02/26 06:08:53;;;;;;;;;;;;;;;1.93;70.04;99449.31;5083056;28;19928;-81
2022/02/26 06:11:22;;;;;;;;;;;;;;;2.22;68.61;99447.81;5101232;27;19967;-81
2022/02/26 06:13:52;;;;;;;;;;;;;;;2.46;67.41;99443.50;5093974;27;20022;-81
2022/02/26 06:16:21;;;;;;;;;;;;;;;2.03;69.08;99452.31;5085404;27;19932;-79
2022/02/26 06:18:49;;;;;;;;;;;;;;;1.92;69.42;99458.38;5099661;28;19994;-80
2022/02/26 06:21:18;;;;;;;;;;;;;;;1.59;70.80;99454.03;5112422;27;20027;-82
2022/02/26 06:23:46;;;;;;;;;;;;;;;1.59;71.16;99459.41;5111513;27;20373;-78
2022/02/26 06:26:14;;;;;;;;;;;;;;;1.99;69.72;99464.50;5096837;27;19924;-83
2022/02/26 06:28:42;;;;;;;;;;;;;;;1.96;69.83;99468.44;5094605;27;19954;-79
2022/02/26 06:31:11;;;;;;;;;;;;;;;2.07;69.36;99461.56;5086208;27;19924;-80
2022/02/26 06:33:39;;;;;;;;;;;;;;;1.81;70.27;99462.56;5103247;27;20010;-81
2022/02/26 06:36:07;;;;;;;;;;;;;;;1.88;70.25;99474.06;5098132;27;19977;-80
2022/02/26 06:38:35;;;;;;;;;;;;;;;1.92;70.03;99474.44;5099227;27;19967;-81
2022/02/26 06:41:05;;;;;;;;;;;;;;;1.80;70.59;99477.00;5108209;27;20347;-82
2022/02/26 06:43:33;;;;;;;;;;;;;;;1.80;70.55;99477.00;5100607;27;19962;-78
2022/02/26 06:46:02;;;;;;;;;;;;;;;1.99;69.82;99470.69;5096953;27;20354;-82
2022/02/26 06:48:34;;;;;;;;;;;;;;;2.47;67.71;99470.09;5110677;27;20337;-81
2022/02/26 06:51:02;;;;;;;;;;;;;;;2.69;66.86;99475.06;5109824;27;20586;-82
2022/02/26 06:53:32;;;;;;;;;;;;;;;2.17;68.61;99483.34;5114533;27;19963;-85
2022/02/26 06:56:01;;;;;;;;;;;;;;;2.26;68.90;99486.59;5105831;27;19932;-79
2022/02/26 06:58:28;;;;;;;;;;;;;;;2.13;68.86;99486.66;5107502;27;19977;-83
2022/02/26 07:00:56;;;;;;;;;;;;;;;2.04;69.15;99495.00;5114011;27;19927;-83
2022/02/26 07:03:24;;;;;;;;;;;;;;;2.38;68.53;99492.88;5110791;27;19924;-84
2022/02/26 07:05:57;;;;;;;;;;;;;;;2.71;66.88;99483.69;5105870;27;19962;-88
2022/02/26 07:08:26;;;;;;;;;;;;;;;2.91;66.24;99480.81;5101376;27;19989;-86
2022/02/26 07:10:55;;;;;;;;;;;;;;;2.54;67.85;99489.63;5108514;27;20615;-87
2022/02/26 07:13:26;;;;;;;;;;;;;;;2.37;68.73;99499.28;5134963;27;19946;-85
2022/02/26 07:15:54;;;;;;;;;;;;;;;2.12;69.73;99496.56;5112268;27;20633;-94
2022/02/26 07:18:26;;;;;;;;;;;;;;;2.02;70.05;99499.72;5126500;27;19955;-91
2022/02/26 07:20:54;;;;;;;;;;;;;;;2.09;69.91;99503.22;5123634;27;19923;-85
2022/02/26 07:23:23;;;;;;;;;;;;;;;1.91;70.09;99505.78;5133867;27;19976;-86
2022/02/26 07:25:51;;;;;;;;;;;;;;;2.26;69.63;99502.66;5111664;27;19931;-95
2022/02/26 07:28:19;;;;;;;;;;;;;;;2.66;68.24;99507.69;5119586;27;19973;-90
2022/02/26 07:30:52;;;;;;;;;;;;;;;2.24;69.38;99512.81;5103964;27;19947;-88
2022/02/26 07:33:20;;;;;;;;;;;;;;;2.13;69.58;99524.19;5120993;27;19924;-79
2022/02/26 07:35:48;;;;;;;;;;;;;;;2.75;67.75;99515.25;5094257;27;19924;-85
2022/02/26 07:38:16;;;;;;;;;;;;;;;2.72;67.75;99528.28;5107706;27;19923;-86
2022/02/26 07:40:47;;;;;;;;;;;;;;;2.41;68.87;99532.69;5121961;27;19974;-82
2022/02/26 07:43:15;;;;;;;;;;;;;;;2.17;69.71;99533.47;5100219;28;19931;-93
2022/02/26 07:45:46;;;;;;;;;;;;;;;2.20;69.81;99531.19;5120414;27;19924;-81
2022/02/26 07:48:14;;;;;;;;;;;;;;;2.78;67.30;99538.16;5118245;27;19984;-87
2022/02/26 07:50:42;;;;;;;;;;;;;;;2.96;66.91;99530.09;5121813;27;19970;-80
2022/02/26 07:53:25;;;;;;;;;;;;;;;2.46;68.05;99537.38;5101123;28;19924;-83
2022/02/26 07:56:01;;;;;;;;;;;;;;;2.41;68.36;99532.69;5120767;27;19923;-89
2022/02/26 07:58:28;;;;;;;;;;;;;;;2.57;68.09;99537.50;5122847;27;20367;-85
2022/02/26 08:00:56;;;;;;;;;;;;;;;3.09;66.20;99537.19;5113114;27;19924;-92
2022/02/26 08:03:24;;;;;;;;;;;;;;;3.19;65.71;99539.38;5121920;27;19927;-91
2022/02/26 08:05:57;;;;;;;;;;;;;;;2.97;67.04;99538.97;5126851;27;20022;-92
2022/02/26 08:08:31;;;;;;;;;;;;;;;2.39;67.91;99544.66;5125533;27;19959;-92
2022/02/26 08:10:58;;;;;;;;;;;;;;;2.28;68.59;99543.50;5102444;27;20041;-92
2022/02/26 08:13:28;;;;;;;;;;;;;;;2.24;68.46;99550.34;5103655;28;19936;-91
2022/02/26 08:15:56;;;;;;;;;;;;;;;2.45;68.76;99543.78;5120489;28;19928;-91
2022/02/26 08:18:24;;;;;;;;;;;;;;;2.59;67.71;99546.13;5106282;28;19942;-92
2022/02/26 08:23:42;;;;;;;;;;;;;;;2.55;68.28;99547.59;5105471;28;19924;-93
2022/02/26 08:26:12;;;;;;;;;;;;;;;2.53;67.84;99549.69;5101643;28;19928;-93
2022/02/26 08:28:42;;;;;;;;;;;;;;;2.54;68.31;99547.84;5091831;28;19928;-92
2022/02/26 08:31:10;;;;;;;;;;;;;;;2.60;68.04;99546.94;5103729;28;19977;-88
2022/02/26 08:33:38;;;;;;;;;;;;;;;2.78;67.78;99554.25;5104365;27;19924;-93
2022/02/26 08:36:09;;;;;;;;;;;;;;;3.04;66.36;99548.63;5108096;28;20479;-91
2022/02/26 08:38:38;;;;;;;;;;;;;;;3.32;65.03;99547.28;5096085;28;19954;-89
2022/02/26 08:41:09;;;;;;;;;;;;;;;2.96;65.81;99551.59;5107593;28;20019;-92
2022/02/26 08:43:37;;;;;;;;;;;;;;;2.90;66.43;99549.78;5106384;28;19947;-92
2022/02/26 08:46:10;;;;;;;;;;;;;;;3.23;65.49;99552.13;5101919;28;19924;-92
2022/02/26 08:49:03;;;;;;;;;;;;;;;3.12;65.64;99542.94;5106943;28;20023;-81
2022/02/26 08:51:31;;;;;;;;;;;;;;;2.76;66.59;99549.06;5120095;27;19924;-87
2022/02/26 08:54:00;;;;;;;;;;;;;;;2.83;66.54;99552.53;5120462;27;20431;-87
2022/02/26 08:56:57;;;;;;;;;;;;;;;3.26;64.93;99548.19;5330463;22;19949;31
2022/02/26 09:05:59;;;;;;;;;;;;;;;3.10;65.81;99553.09;5081571;28;20019;-81
2022/02/26 09:08:27;;;;;;;;;;;;;;;2.92;66.17;99547.69;5088999;28;19998;-79
2022/02/26 09:10:55;;;;;;;;;;;;;;;3.14;66.05;99543.56;5082553;28;19929;-80
2022/02/26 09:13:23;;;;;;;;;;;;;;;3.15;65.70;99545.19;5083747;28;20098;-80
2022/02/26 09:15:51;;;;;;;;;;;;;;;3.19;64.92;99544.75;5100185;27;19936;-80
2022/02/26 09:18:19;;;;;;;;;;;;;;;3.12;64.73;99542.13;5088489;28;20403;-78
2022/02/26 09:20:47;;;;;;;;;;;;;;;3.17;64.91;99546.84;5077639;28;19953;-87
2022/02/26 09:26:17;;;;;;;;;;;;;;;3.58;64.26;99544.28;5076437;28;19933;-86
2022/02/26 09:28:53;;;;;;;;;;;;;;;3.55;63.92;99558.16;5022453;28;20316;-93
2022/02/26 09:31:22;;;;;;;;;;;;;;;3.72;62.08;99555.69;5063070;28;20271;-95
2022/02/26 09:33:49;;;;;;;;;;;;;;;3.71;61.45;99553.22;5059000;28;19947;-95
2022/02/26 09:36:17;;;;;;;;;;;;;;;3.99;61.19;99558.03;5067012;28;19970;-93
2022/02/26 09:38:45;;;;;;;;;;;;;;;3.99;60.36;99549.94;5053497;28;19944;-95
2022/02/26 09:44:29;;;;;;;;;;;;;;;4.30;60.68;99551.56;5068025;28;19960;-89
2022/02/26 09:46:58;;;;;;;;;;;;;;;4.19;59.35;99551.31;5059774;28;19925;-87
2022/02/26 09:49:27;;;;;;;;;;;;;;;4.00;59.36;99552.44;5022361;28;19909;-94
2022/02/26 09:54:52;;;;;;;;;;;;;;;4.26;57.82;99548.53;5070090;28;19967;-87
2022/02/26 09:57:25;;;;;;;;;;;;;;;4.32;58.14;99547.63;5078873;28;19908;-93
2022/02/26 10:00:01;;;;;;;;;;;;;;;4.59;57.64;99548.03;5062666;28;19925;-91
2022/02/26 10:02:32;;;;;;;;;;;;;;;4.72;56.63;99550.47;5072808;28;19925;-81
2022/02/26 10:05:00;;;;;;;;;;;;;;;4.90;56.08;99560.34;5042817;28;19956;-89
2022/02/26 10:07:54;;;;;;;;;;;;;;;4.62;55.50;99563.69;5062234;28;19916;-90
2022/02/26 10:10:24;;;;;;;;;;;;;;;4.88;55.26;99564.31;5041742;28;19924;-84
2022/02/26 10:12:53;;;;;;;;;;;;;;;4.81;55.94;99566.31;5022590;28;19924;-89
2022/02/26 10:15:24;;;;;;;;;;;;;;;4.92;54.77;99565.47;5053814;28;19932;-92
2022/02/26 10:18:17;;;;;;;;;;;;;;;4.56;54.40;99561.13;5051746;28;20274;-89
2022/02/26 10:20:46;;;;;;;;;;;;;;;4.36;54.88;99569.47;5051938;28;20287;-94
2022/02/26 10:23:14;;;;;;;;;;;;;;;4.96;53.82;99572.06;5041398;28;19971;-91
2022/02/26 10:25:42;;;;;;;;;;;;;;;5.04;54.32;99570.88;5053129;28;19931;-89
2022/02/26 10:28:11;;;;;;;;;;;;;;;5.27;53.64;99568.16;5051152;28;19924;-91
2022/02/26 10:30:41;;;;;;;;;;;;;;;5.34;53.67;99568.03;5017903;28;20389;-85
2022/02/26 10:33:09;;;;;;;;;;;;;;;5.19;52.54;99566.66;5014103;28;20458;-85
2022/02/26 10:35:43;;;;;;;;;;;;;;;4.96;53.96;99580.13;5030195;28;19925;-89
2022/02/26 10:38:12;;;;;;;;;;;;;;;5.03;53.40;99580.00;5015401;28;19924;-89
2022/02/26 10:40:47;;;;;;;;;;;;;;;5.03;54.14;99582.69;5032133;28;19924;-79
2022/02/26 10:43:37;;;;;;;;;;;;;;;4.68;54.70;99580.78;5049132;28;19925;-89
2022/02/26 10:46:15;;;;;;;;;;;;;;;5.19;53.91;99576.59;5050337;28;20280;-81
2022/02/26 10:48:48;;;;;;;;;;;;;;;4.86;53.85;99577.19;5033049;28;19929;-82
2022/02/26 10:51:22;;;;;;;;;;;;;;;5.24;53.04;99574.84;5015275;28;19928;-81
2022/02/26 10:53:50;;;;;;;;;;;;;;;4.75;52.06;99572.63;5031732;28;19947;-83
2022/02/26 10:56:21;;;;;;;;;;;;;;;4.92;50.87;99571.69;5048718;28;19970;-77
2022/02/26 10:58:49;;;;;;;;;;;;;;;5.16;51.46;99577.06;5049177;28;19928;-80
2022/02/26 11:01:18;;;;;;;;;;;;;;;5.24;52.21;99566.75;5048990;28;19939;-82
2022/02/26 11:03:46;;;;;;;;;;;;;;;5.50;51.46;99570.00;5050059;28;19929;-75
2022/02/26 11:06:14;;;;;;;;;;;;;;;5.57;52.77;99575.25;5032370;28;19991;-74
2022/02/26 11:08:43;;;;;;;;;;;;;;;5.44;52.99;99565.56;5048905;28;20048;-75
2022/02/26 11:11:12;;;;;;;;;;;;;;;5.57;52.29;99557.22;5048968;28;20012;-73
2022/02/26 11:13:41;;;;;;;;;;;;;;;5.26;49.94;99561.94;5046481;28;19932;-74
2022/02/26 11:16:10;;;;;;;;;;;;;;;5.46;49.81;99556.19;5030356;28;19925;-74
2022/02/26 11:18:41;;;;;;;;;;;;;;;5.26;51.57;99555.75;5048654;28;19924;-73
2022/02/26 11:21:10;;;;;;;;;;;;;;;5.01;52.52;99561.41;5049260;28;19939;-72
2022/02/26 11:23:41;;;;;;;;;;;;;;;5.50;51.16;99560.03;5042915;28;19932;-78
2022/02/26 11:26:09;;;;;;;;;;;;;;;5.37;51.11;99551.38;5047627;28;20578;-80
2022/02/26 11:28:38;;;;;;;;;;;;;;;5.30;51.59;99556.09;5046295;28;19929;-78
2022/02/26 11:31:09;;;;;;;;;;;;;;;5.25;51.35;99554.91;5048222;28;19968;-78
2022/02/26 11:33:37;;;;;;;;;;;;;;;5.29;52.13;99560.66;5047982;28;19932;-81
2022/02/26 11:36:09;;;;;;;;;;;;;;;5.12;50.93;99560.56;5048233;28;19964;-80
2022/02/26 11:38:38;;;;;;;;;;;;;;;5.16;50.52;99556.31;5047835;28;19944;-78
2022/02/26 11:41:25;;;;;;;;;;;;;;;5.47;49.89;99557.81;5047874;28;20363;-81
2022/02/26 11:43:55;;;;;;;;;;;;;;;5.09;50.85;99544.88;5010888;28;19971;-79
2022/02/26 11:46:27;;;;;;;;;;;;;;;5.30;50.43;99551.53;5008341;28;19932;-78
2022/02/26 11:48:55;;;;;;;;;;;;;;;5.56;48.89;99550.19;5008343;28;20360;-79
2022/02/26 11:51:35;;;;;;;;;;;;;;;5.48;49.79;99555.94;5006964;28;20012;-77
2022/02/26 11:54:05;;;;;;;;;;;;;;;5.03;51.31;99551.19;5021826;28;21136;-82
2022/02/26 11:56:43;;;;;;;;;;;;;;;5.03;51.40;99555.75;5009880;28;19932;-78
2022/02/26 11:59:11;;;;;;;;;;;;;;;4.91;51.58;99555.78;5011466;28;19937;-77
2022/02/26 12:01:45;;;;;;;;;;;;;;;5.10;51.95;99543.81;5007297;28;20435;-83
2022/02/26 12:04:13;;;;;;;;;;;;;;;4.93;52.81;99554.47;5009505;28;19932;-81
2022/02/26 12:06:43;;;;;;;;;;;;;;;5.12;52.15;99552.50;5007374;28;19952;-82
2022/02/26 12:09:12;;;;;;;;;;;;;;;5.07;51.12;99546.16;5007235;28;20013;-77
2022/02/26 12:11:40;;;;;;;;;;;;;;;5.07;52.59;99546.16;5009371;28;19951;-73
2022/02/26 12:14:19;;;;;;;;;;;;;;;4.91;51.43;99553.09;4991338;28;21237;-72
2022/02/26 12:16:48;;;;;;;;;;;;;;;4.67;52.40;99549.53;5008834;28;20372;-78
2022/02/26 12:19:21;;;;;;;;;;;;;;;4.70;52.94;99551.78;5007383;28;19941;-79
2022/02/26 12:21:51;;;;;;;;;;;;;;;4.73;53.39;99551.28;5006679;28;19992;-81
2022/02/26 12:27:13;;;;;;;;;;;;;;;4.71;52.99;99548.03;5006436;28;20012;-78
2022/02/26 12:29:51;;;;;;;;;;;;;;;4.69;53.50;99547.44;5004274;28;19932;-88
2022/02/26 12:32:25;;;;;;;;;;;;;;;4.92;52.39;99542.06;5009807;28;20007;-78
2022/02/26 12:35:01;;;;;;;;;;;;;;;4.71;53.27;99538.06;5008343;28;19932;-80
2022/02/26 12:37:31;;;;;;;;;;;;;;;5.01;52.29;99529.06;5021278;28;20031;-79
2022/02/26 12:39:59;;;;;;;;;;;;;;;5.05;52.85;99532.91;5009842;28;20016;-77
2022/02/26 12:45:20;;;;;;;;;;;;;;;5.04;53.15;99531.28;5049330;28;20282;-77
2022/02/26 12:47:48;;;;;;;;;;;;;;;5.14;53.29;99528.81;5045379;28;19929;-84
2022/02/26 12:50:17;;;;;;;;;;;;;;;5.47;52.08;99528.16;5048234;28;19925;-81
2022/02/26 12:52:47;;;;;;;;;;;;;;;5.50;51.63;99527.69;5035983;28;20499;-77
2022/02/26 12:55:15;;;;;;;;;;;;;;;5.26;52.95;99521.53;5049620;28;19956;-79
2022/02/26 12:57:44;;;;;;;;;;;;;;;5.03;53.19;99518.88;5047778;28;19968;-82
2022/02/26 13:00:14;;;;;;;;;;;;;;;5.32;52.74;99508.16;5047330;28;19933;-77
2022/02/26 13:02:51;;;;;;;;;;;;;;;5.12;52.51;99517.47;5048374;28;19963;-80
2022/02/26 13:05:23;;;;;;;;;;;;;;;5.11;53.06;99507.72;5048430;28;20508;-77
2022/02/26 13:07:57;;;;;;;;;;;;;;;5.22;53.11;99514.19;5048927;28;19971;-80
2022/02/26 13:10:28;;;;;;;;;;;;;;;5.04;52.41;99504.34;5048127;28;19925;-77
2022/02/26 13:12:55;;;;;;;;;;;;;;;5.26;52.91;99497.28;5047597;28;19929;-81
2022/02/26 13:15:48;;;;;;;;;;;;;;;5.20;53.01;99498.22;5052162;28;19955;-78
2022/02/26 13:18:16;;;;;;;;;;;;;;;5.42;52.45;99489.50;5050431;28;19948;-80
2022/02/26 13:20:51;;;;;;;;;;;;;;;5.19;53.25;99491.19;5050258;28;19925;-81
2022/02/26 13:23:20;;;;;;;;;;;;;;;5.25;52.53;99484.03;5050100;28;19937;-80
2022/02/26 13:25:49;;;;;;;;;;;;;;;5.44;51.99;99484.72;5032924;28;20616;-84
2022/02/26 13:28:17;;;;;;;;;;;;;;;5.62;52.20;99483.69;5036100;28;19925;-78
2022/02/26 13:30:46;;;;;;;;;;;;;;;5.59;52.18;99484.16;5036216;28;19979;-80
2022/02/26 13:33:18;;;;;;;;;;;;;;;5.75;51.54;99481.53;5051458;28;19936;-78
2022/02/26 13:38:40;;;;;;;;;;;;;;;5.69;50.94;99479.78;5048260;28;20019;-74
2022/02/26 13:41:10;;;;;;;;;;;;;;;5.70;50.09;99475.22;5047096;28;19925;-74
2022/02/26 13:43:39;;;;;;;;;;;;;;;5.75;50.60;99472.59;5029650;28;19928;-77